Monday, July 23, 2018, 11:30 AM EDT
Back to Local

KILG, Wilmington New Castle Co

Location: New Castle, DE, United States Lat: 39.667
Local Time: 11:30 AM EDT (15:30 GMT) Lon: -75.6
Time Zone: US/Eastern Elev: 78 ft

Show me the last for .
Show Decoded

2018-07-23 10:51 METAR KILG 231451Z 14020G26KT 10SM BKN016 BKN029 OVC037 28/23 A3003 RMK AO2 PK
                 WND 13026/1450 SLP167 60000 T02830233 50008 =
2018-07-23 09:51 METAR KILG 231351Z 15014G21KT 10SM BKN012 BKN030 OVC035 26/23 A3003 RMK AO2 PK
                 WND 17027/1303 RAE10 SLP167 P0000 T02610233 =
2018-07-23 09:10 METAR KILG 231310Z 16017G27KT 10SM BKN011 OVC017 26/24 A3002 RMK AO2 PK WND
                 17027/1303 RAE10 P0000 T02560239 =
2018-07-23 09:03 METAR KILG 231303Z 16017G27KT 4SM -RA BR FEW008 BKN015 OVC023 25/24 A3002 RMK
                 AO2 PK WND 17027/1303 P0000 T02500239 =
2018-07-23 08:51 METAR KILG 231251Z 17016KT 4SM -RA BR BKN011 OVC017 25/24 A3002 RMK AO2 PK WND
                 16026/1226 RAB41 SLP165 P0000 T02500239 =
2018-07-23 07:51 METAR KILG 231151Z 16015KT 10SM OVC013 26/23 A3001 RMK AO2 SLP159 T02560233
                 10256 20250 53015 $ =
2018-07-23 07:24 METAR KILG 231124Z 15014KT 10SM BKN015 OVC021 26/23 A2999 RMK AO2 T02560228 $ =
2018-07-23 07:21 METAR KILG 231121Z 16015KT 10SM BKN013 OVC021 25/23 A2999 RMK AO2 T02500228 $ =
2018-07-23 06:52 METAR KILG 231052Z 15013G22KT 10SM OVC009 25/23 A2998 RMK AO2 T02500228 $ =
2018-07-23 06:51 METAR KILG 231051Z 15014G22KT 10SM OVC010 25/23 A2998 RMK AO2 SLP150 T02500233 $
                 =
2018-07-23 06:10 METAR KILG 231010Z 14013KT 10SM OVC009 26/24 A2997 RMK AO2 T02560239 $ =
2018-07-23 05:51 METAR KILG 230951Z AUTO 14010KT 10SM OVC009 26/24 A2996 RMK AO2 SLP144 T02560239
                 $ =
2018-07-23 05:40 METAR KILG 230940Z AUTO 14009KT 10SM OVC010 26/24 A2996 RMK AO2 CIG 008V013
                 T02560239 $ =
2018-07-23 05:19 METAR KILG 230919Z AUTO 14011KT 10SM BKN008 BKN013 OVC021 26/24 A2996 RMK AO2
                 T02560239 $ =
2018-07-23 05:06 METAR KILG 230906Z AUTO 14012KT 10SM BKN011 BKN019 26/24 A2996 RMK AO2 T02560239
                 $ =
2018-07-23 04:51 METAR KILG 230851Z AUTO 14011KT 10SM FEW011 OVC021 26/24 A2996 RMK AO2 SLP142
                 T02560239 51006 $ =
2018-07-23 04:47 METAR KILG 230847Z AUTO 14009KT 10SM SCT011 OVC021 26/24 A2996 RMK AO2 $ =
2018-07-23 04:25 METAR KILG 230825Z AUTO 13011KT 10SM BKN011 OVC019 26/24 A2995 RMK AO2 T02560239
                 $ =
2018-07-23 04:16 METAR KILG 230816Z AUTO 15012KT 10SM BKN009 OVC020 26/24 A2995 RMK AO2 CIG
                 008V013 T02560239 $ =
2018-07-23 04:02 METAR KILG 230802Z AUTO 14010KT 10SM FEW009 OVC020 26/24 A2994 RMK AO2 T02560239
                 $ =
2018-07-23 03:51 METAR KILG 230751Z AUTO 14012KT 10SM FEW010 OVC020 26/24 A2994 RMK AO2 SLP136
                 T02560239 $ =
2018-07-23 03:43 METAR KILG 230743Z AUTO 14011KT 10SM FEW010 SCT014 OVC022 26/24 A2993 RMK AO2
                 T02560239 $ =
2018-07-23 03:20 METAR KILG 230720Z AUTO 14012G23KT 10SM OVC014 26/24 A2993 RMK AO2 T02560239 $ =
2018-07-23 03:08 METAR KILG 230708Z AUTO 14011G21KT 10SM SCT010 OVC016 26/23 A2993 RMK AO2
                 T02560233 $ =
2018-07-23 02:51 METAR KILG 230651Z AUTO 15017G23KT 10SM BKN011 OVC018 26/24 A2994 RMK AO2 SLP136
                 T02560239 $ =
2018-07-23 02:07 METAR KILG 230607Z AUTO 14013KT 10SM BKN011 OVC016 26/24 A2994 RMK AO2 T02560239
                 $ =
2018-07-23 01:51 METAR KILG 230551Z AUTO 14016G22KT 10SM SCT011 BKN017 OVC070 26/24 A2994 RMK AO2
                 SLP139 T02560239 10267 20256 58000 $ =
2018-07-23 00:51 METAR KILG 230451Z AUTO 14012KT 10SM BKN012 OVC033 26/24 A2996 RMK AO2 SLP142
                 T02560239 403000200 $ =
2018-07-23 00:37 METAR KILG 230437Z AUTO 14013KT 10SM SCT012 OVC031 26/24 A2995 RMK AO2 T02560239
                 $ =
2018-07-23 00:30 METAR KILG 230430Z AUTO 14012KT 10SM SCT011 OVC029 26/24 A2996 RMK AO2 T02560239
                 $ =
2018-07-23 00:02 METAR KILG 230402Z AUTO 14011KT 10SM OVC010 26/24 A2996 RMK AO2 T02560239 $ =
2018-07-22 23:51 METAR KILG 230351Z AUTO 14014KT 10SM OVC009 26/24 A2995 RMK AO2 SLP141 T02560239
                 $ =
2018-07-22 22:51 METAR KILG 230251Z AUTO 14011KT 10SM OVC009 26/24 A2995 RMK AO2 SLP139 T02560239
                 51019 $ =
2018-07-22 22:18 METAR KILG 230218Z AUTO 14008KT 10SM OVC010 26/24 A2995 RMK AO2 CIG 008V014
                 T02560239 $ =
2018-07-22 22:02 METAR KILG 230202Z AUTO 13008KT 10SM OVC009 26/24 A2994 RMK AO2 CIG 008V014
                 T02560239 $ =
2018-07-22 21:51 METAR KILG 230151Z AUTO 15010KT 10SM OVC010 26/24 A2994 RMK AO2 CIG 008V013
                 SLP139 T02560239 $ =
2018-07-22 21:06 METAR KILG 230106Z AUTO 15012KT 10SM OVC012 26/24 A2993 RMK AO2 LTG DSNT W-N
                 T02610239 $ =
2018-07-22 20:51 METAR KILG 230051Z 15010KT 10SM VCTS OVC012 26/24 A2993 RMK AO2 LTG DSNT W AND
                 NW SLP133 T02610239 $ =
2018-07-22 20:25 METAR KILG 230025Z 14011KT 10SM VCTS BKN014 26/24 A2991 RMK AO2 LTG DSNT SW-NW
                 T02610239 $ =
2018-07-22 20:02 METAR KILG 230002Z 14017KT 10SM BKN015 26/24 A2989 RMK AO2 LTG DSNT SW-NW
                 T02610239 $ =
2018-07-22 19:51 METAR KILG 222351Z 14012G21KT 10SM SCT015 BKN060 BKN070 27/24 A2989 RMK AO2 LTG
                 DSNT SW AND W SLP121 T02670239 10300 20267 53010 $ =
2018-07-22 18:51 METAR KILG 222251Z 13013G22KT 10SM FEW023 28/23 A2987 RMK AO2 SLP115 T02780233 $
                 =
2018-07-22 17:51 METAR KILG 222151Z 13014G21KT 10SM FEW075 28/23 A2987 RMK AO2 LTG DSNT NW SLP112
                 T02830228 $ =
2018-07-22 16:51 METAR KILG 222051Z 14011G20KT 10SM FEW031 SCT090 SCT120 28/22 A2986 RMK AO2 PK
                 WND 16026/2028 LTG DSNT SW AND W SLP110 T02830222 55005 $ =
2018-07-22 15:51 METAR KILG 221951Z 15015KT 10SM FEW032 SCT045 30/22 A2985 RMK AO2 SLP106
                 T03000222 $ =
2018-07-22 14:51 METAR KILG 221851Z 14013G21KT 10SM FEW028 SCT041 29/22 A2986 RMK AO2 SLP110
                 T02940222 $ =
2018-07-22 14:32 METAR KILG 221832Z 14014G19KT 10SM FEW025 SCT031 BKN043 29/23 A2986 RMK AO2
                 T02890228 $ =
2018-07-22 14:07 METAR KILG 221807Z 14013G18KT 10SM SCT026 BKN032 OVC044 28/23 A2987 RMK AO2
                 T02780228 $ =
2018-07-22 13:51 METAR KILG 221751Z 19004KT 10SM BKN026 BKN034 OVC042 27/22 A2988 RMK AO2 LTG
                 DSNT SW SLP115 T02670222 10272 20206 58005 $ =
2018-07-22 13:23 METAR KILG 221723Z 18005KT 10SM SCT023 BKN033 27/22 A2988 RMK AO2 T02720222 $ =
2018-07-22 12:51 METAR KILG 221651Z 00000KT 10SM OVC023 26/21 A2989 RMK AO2 SLP122 T02560211 $ =
2018-07-22 11:51 METAR KILG 221551Z 15008KT 10SM BKN029 BKN033 25/21 A2989 RMK AO2 SLP122
                 T02500206 $ =

Support USWX by starting your Amazon purchase here.